Time;durP1;ratioP1;P1;durP2;ratioP2;P2;SDS_P1;SDS_P2;PMS_P1;PMS_P2;Temp;Humidity;BMP_temperature;BMP_pressure;BME280_temperature;BME280_humidity;BME280_pressure;Samples;Min_cycle;Max_cycle;Signal;HPM_P1;HPM_P2
2021/05/31 00:02:15;;;;;;;6.28;5.10;;;10.90;94.80;;;;;;5054953;28;20021;-77
2021/05/31 00:04:41;;;;;;;8.32;5.40;;;10.90;94.10;;;;;;5056538;28;20504;-77
2021/05/31 00:07:12;;;;;;;8.90;5.20;;;10.90;94.70;;;;;;5056084;28;20067;-77
2021/05/31 00:09:39;;;;;;;7.50;5.10;;;10.90;95.60;;;;;;5055946;28;20025;-77
2021/05/31 00:12:09;;;;;;;9.63;5.35;;;10.80;95.50;;;;;;5054732;28;20024;-77
2021/05/31 00:14:34;;;;;;;6.55;5.38;;;10.80;96.20;;;;;;5054916;28;20475;-76
2021/05/31 00:17:00;;;;;;;6.60;4.90;;;10.80;96.10;;;;;;5058011;28;20021;-77
2021/05/31 00:19:26;;;;;;;6.03;4.82;;;10.80;96.50;;;;;;5055755;28;20382;-77
2021/05/31 00:21:52;;;;;;;11.48;5.70;;;10.80;96.20;;;;;;5055849;28;20017;-77
2021/05/31 00:24:18;;;;;;;7.57;5.15;;;10.80;97.10;;;;;;5069710;28;20420;-77
2021/05/31 00:26:44;;;;;;;7.50;5.03;;;10.80;97.20;;;;;;5075575;28;20036;-77
2021/05/31 00:29:10;;;;;;;7.13;5.10;;;10.80;96.40;;;;;;5075648;28;20031;-77
2021/05/31 00:31:36;;;;;;;9.13;4.97;;;10.70;96.30;;;;;;5074277;28;20031;-77
2021/05/31 00:34:03;;;;;;;8.50;5.05;;;10.80;96.50;;;;;;5075598;28;20490;-77
2021/05/31 00:36:29;;;;;;;11.10;6.43;;;10.80;96.40;;;;;;5074274;28;20119;-77
2021/05/31 00:38:55;;;;;;;8.43;5.53;;;10.80;96.90;;;;;;5073862;28;20028;-77
2021/05/31 00:41:22;;;;;;;10.27;5.20;;;10.80;96.70;;;;;;5075452;28;20025;-77
2021/05/31 00:43:48;;;;;;;8.23;5.40;;;10.70;97.10;;;;;;5075270;28;20386;-77
2021/05/31 00:46:15;;;;;;;7.97;5.25;;;10.70;97.40;;;;;;5059635;28;20082;-77
2021/05/31 00:48:40;;;;;;;6.25;5.05;;;10.60;97.90;;;;;;5055285;28;20467;-77
2021/05/31 00:51:09;;;;;;;7.88;5.78;;;10.60;98.40;;;;;;5054034;28;20051;-77
2021/05/31 00:53:36;;;;;;;5.68;4.90;;;10.60;99.10;;;;;;5055094;28;20104;-77
2021/05/31 00:56:03;;;;;;;10.60;5.95;;;10.50;99.90;;;;;;5056271;28;20013;-77
2021/05/31 00:58:30;;;;;;;8.30;5.80;;;10.50;99.90;;;;;;5054972;28;20111;-77
2021/05/31 01:01:01;;;;;;;7.75;5.20;;;10.50;99.90;;;;;;5054409;28;20021;-77
2021/05/31 01:03:27;;;;;;;8.57;5.57;;;10.50;99.90;;;;;;5055164;28;20021;-77
2021/05/31 01:05:56;;;;;;;8.93;5.53;;;10.40;99.90;;;;;;5055236;28;20044;-77
2021/05/31 01:08:44;;;;;;;6.38;4.50;;;10.40;99.90;;;;;;5053427;28;20036;-77
2021/05/31 01:11:13;;;;;;;8.32;6.03;;;10.40;99.90;;;;;;5054990;28;20028;-77
2021/05/31 01:13:47;;;;;;;7.43;5.05;;;10.40;99.90;;;;;;5053477;28;20032;-77
2021/05/31 01:16:21;;;;;;;10.13;6.00;;;10.30;99.90;;;;;;5062940;28;20033;-77
2021/05/31 01:18:49;;;;;;;7.88;5.13;;;10.20;99.90;;;;;;5054676;28;20025;-77
2021/05/31 01:21:37;;;;;;;10.88;5.65;;;10.20;99.90;;;;;;5053517;28;20533;-77
2021/05/31 01:24:11;;;;;;;8.27;5.50;;;10.30;99.90;;;;;;5054734;28;20120;-77
2021/05/31 01:27:14;;;;;;;9.00;5.60;;;10.30;99.90;;;;;;5054521;28;20055;-77
2021/05/31 01:29:43;;;;;;;;;;;10.30;99.90;;;;;;5062980;28;20473;-77
2021/05/31 01:32:11;;;;;;;7.18;5.10;;;10.30;99.90;;;;;;5074548;28;19916;-77
2021/05/31 01:34:40;;;;;;;10.00;6.03;;;10.30;99.90;;;;;;5074390;28;20016;-77
2021/05/31 01:37:17;;;;;;;9.48;5.30;;;10.30;99.90;;;;;;5074466;28;20024;-77
2021/05/31 01:39:46;;;;;;;9.18;6.22;;;10.30;99.90;;;;;;5073044;28;20048;-76
2021/05/31 01:42:12;;;;;;;8.82;5.50;;;10.20;99.90;;;;;;5074255;28;20021;-76
2021/05/31 01:44:39;;;;;;;7.90;5.53;;;10.20;99.90;;;;;;5059796;28;20371;-76
2021/05/31 01:47:05;;;;;;;11.13;6.07;;;10.30;99.90;;;;;;5052798;28;20123;-77
2021/05/31 01:49:31;;;;;;;11.90;6.95;;;10.20;99.90;;;;;;5054179;28;20355;-77
2021/05/31 01:51:59;;;;;;;7.78;5.13;;;10.20;99.90;;;;;;5054184;28;20074;-77
2021/05/31 01:54:26;;;;;;;9.02;5.57;;;10.10;99.90;;;;;;5054089;28;20036;-77
2021/05/31 01:56:54;;;;;;;10.20;5.65;;;10.10;99.90;;;;;;5054010;28;20447;-77
2021/05/31 01:59:20;;;;;;;9.63;6.18;;;10.00;99.90;;;;;;5052648;28;20371;-77
2021/05/31 02:01:47;;;;;;;7.10;5.43;;;10.00;99.90;;;;;;5053814;28;20052;-77
2021/05/31 02:04:13;;;;;;;7.47;5.68;;;10.00;99.90;;;;;;5052613;28;20025;-77
2021/05/31 02:06:39;;;;;;;10.52;5.40;;;10.00;99.90;;;;;;5054738;28;20482;-77
2021/05/31 02:09:05;;;;;;;8.75;5.45;;;9.90;99.90;;;;;;5052476;28;20028;-77
2021/05/31 02:11:43;;;;;;;7.97;5.10;;;9.90;99.90;;;;;;5051885;28;20501;-77
2021/05/31 02:14:17;;;;;;;8.57;5.93;;;9.90;99.90;;;;;;5061827;28;20024;-77
2021/05/31 02:17:05;;;;;;;5.55;4.85;;;9.80;99.90;;;;;;5072381;28;20385;-77
2021/05/31 02:19:32;;;;;;;7.18;5.45;;;9.80;99.90;;;;;;5073620;28;20117;-77
2021/05/31 02:22:00;;;;;;;11.05;5.97;;;9.80;99.90;;;;;;5072206;28;20039;-77
2021/05/31 02:24:26;;;;;;;8.05;5.07;;;9.80;99.90;;;;;;5072139;28;20557;-77
2021/05/31 02:26:52;;;;;;;6.90;5.10;;;9.70;99.90;;;;;;5073368;28;20036;-77
2021/05/31 02:29:18;;;;;;;7.85;5.60;;;9.60;99.90;;;;;;5073027;28;20470;-77
2021/05/31 02:31:44;;;;;;;8.55;5.43;;;9.60;99.90;;;;;;5073323;28;20027;-77
2021/05/31 02:34:10;;;;;;;11.00;5.55;;;9.60;99.90;;;;;;5073300;28;20107;-77
2021/05/31 02:36:36;;;;;;;6.30;4.60;;;9.60;99.90;;;;;;5073253;28;20051;-77
2021/05/31 02:39:02;;;;;;;7.55;4.97;;;9.50;99.90;;;;;;5073275;28;20033;-77
2021/05/31 02:41:28;;;;;;;8.48;5.68;;;9.40;99.90;;;;;;5071118;28;20059;-77
2021/05/31 02:43:54;;;;;;;11.63;6.38;;;9.40;99.90;;;;;;5060460;28;20048;-78
2021/05/31 02:46:19;;;;;;;14.48;6.75;;;9.30;99.90;;;;;;5071805;28;20056;-79
2021/05/31 02:48:45;;;;;;;9.40;5.80;;;9.30;99.90;;;;;;5071793;28;20082;-79
2021/05/31 02:51:11;;;;;;;7.32;4.32;;;9.30;99.90;;;;;;5071846;28;20074;-79
2021/05/31 02:53:37;;;;;;;9.25;6.63;;;9.20;99.90;;;;;;5071775;28;20025;-79
2021/05/31 02:56:03;;;;;;;9.68;6.28;;;9.20;99.90;;;;;;5072954;28;20043;-79
2021/05/31 02:58:29;;;;;;;10.57;5.28;;;9.30;99.90;;;;;;5072725;28;20029;-79
2021/05/31 03:00:55;;;;;;;9.82;5.63;;;9.30;99.90;;;;;;5071364;28;20146;-79
2021/05/31 03:03:21;;;;;;;8.40;5.70;;;9.30;99.90;;;;;;5071622;28;20115;-79
2021/05/31 03:05:46;;;;;;;14.48;6.07;;;9.30;99.90;;;;;;5071473;28;20490;-79
2021/05/31 03:08:12;;;;;;;10.75;6.05;;;9.30;99.90;;;;;;5071610;28;20036;-79
2021/05/31 03:10:38;;;;;;;9.98;6.13;;;9.30;99.90;;;;;;5071528;28;20021;-79
2021/05/31 03:13:04;;;;;;;15.13;6.82;;;9.30;99.90;;;;;;5070588;28;20116;-79
2021/05/31 03:15:30;;;;;;;18.60;7.50;;;9.40;99.90;;;;;;5051443;28;20009;-79
2021/05/31 03:17:56;;;;;;;13.13;5.82;;;9.50;99.90;;;;;;5052644;28;20039;-79
2021/05/31 03:20:29;;;;;;;8.65;5.90;;;9.60;99.20;;;;;;5052627;28;20025;-79
2021/05/31 03:22:55;;;;;;;10.82;5.90;;;9.70;99.10;;;;;;5052779;28;20379;-79
2021/05/31 03:25:21;;;;;;;14.63;6.78;;;9.90;98.50;;;;;;5056802;28;20009;-79
2021/05/31 03:27:47;;;;;;;12.52;5.85;;;10.10;95.50;;;;;;5055283;28;20041;-79
2021/05/31 03:30:14;;;;;;;11.07;6.00;;;10.40;94.40;;;;;;5055607;28;20013;-79
2021/05/31 03:32:41;;;;;;;11.73;5.20;;;10.60;91.80;;;;;;5056583;28;20394;-79
2021/05/31 03:35:09;;;;;;;13.13;6.15;;;10.80;89.70;;;;;;5055381;28;20028;-79
2021/05/31 03:37:35;;;;;;;12.23;6.60;;;11.10;86.40;;;;;;5056513;28;20025;-79
2021/05/31 03:40:01;;;;;;;15.10;6.43;;;11.10;83.70;;;;;;5055352;28;20066;-79
2021/05/31 03:42:26;;;;;;;11.30;5.65;;;11.20;82.80;;;;;;5060606;28;20119;-79
2021/05/31 03:44:52;;;;;;;6.05;4.78;;;11.40;82.50;;;;;;5061944;28;20021;-79
2021/05/31 03:47:18;;;;;;;15.95;6.50;;;11.60;81.90;;;;;;5051756;28;20043;-77
2021/05/31 03:49:43;;;;;;;11.15;6.10;;;11.80;80.00;;;;;;5074548;28;20150;-77
2021/05/31 03:52:09;;;;;;;10.77;5.80;;;11.80;78.70;;;;;;5076200;28;20027;-77
2021/05/31 03:54:35;;;;;;;9.18;5.47;;;12.00;77.10;;;;;;5076323;28;20474;-77
2021/05/31 03:57:00;;;;;;;6.07;4.57;;;12.20;76.90;;;;;;5075456;28;20024;-77
2021/05/31 03:59:26;;;;;;;9.18;5.00;;;12.10;75.40;;;;;;5076297;28;20099;-77
2021/05/31 04:01:52;;;;;;;5.32;4.00;;;12.00;77.10;;;;;;5074923;28;20025;-77
2021/05/31 04:04:20;;;;;;;7.05;4.35;;;11.70;76.50;;;;;;5076061;28;20029;-77
2021/05/31 04:11:58;;;;;;;7.35;4.15;;;11.80;77.00;;;;;;5075798;28;20039;-77
2021/05/31 04:14:24;;;;;;;7.15;4.05;;;12.00;76.20;;;;;;5064829;28;20026;-77
2021/05/31 04:16:53;;;;;;;8.15;5.07;;;12.20;74.70;;;;;;5055889;28;20070;-78
2021/05/31 04:19:21;;;;;;;6.00;4.95;;;12.40;74.10;;;;;;5055752;28;20154;-77
2021/05/31 04:21:49;;;;;;;5.82;4.43;;;12.50;72.70;;;;;;5059610;28;20079;-78
2021/05/31 04:24:16;;;;;;;6.72;4.20;;;12.60;71.00;;;;;;5055811;28;20086;-78
2021/05/31 04:26:44;;;;;;;5.97;4.05;;;12.70;70.90;;;;;;5063828;28;20079;-78
2021/05/31 04:29:11;;;;;;;7.15;4.60;;;12.70;72.00;;;;;;5055692;28;20387;-77
2021/05/31 04:31:38;;;;;;;11.13;5.53;;;12.80;71.50;;;;;;5055680;28;20355;-78
2021/05/31 04:34:07;;;;;;;10.43;5.75;;;12.90;71.80;;;;;;5055590;28;20036;-78
2021/05/31 04:36:33;;;;;;;6.20;4.80;;;12.90;71.30;;;;;;5054499;28;20565;-78
2021/05/31 04:39:00;;;;;;;6.60;4.28;;;12.80;71.20;;;;;;5055484;28;20474;-78
2021/05/31 04:41:25;;;;;;;8.15;4.68;;;12.90;71.20;;;;;;5062969;28;20059;-77
2021/05/31 04:43:52;;;;;;;5.93;4.25;;;13.00;70.20;;;;;;5071334;28;20467;-78
2021/05/31 04:46:17;;;;;;;6.60;4.10;;;12.90;69.70;;;;;;5055312;28;20025;-77
2021/05/31 04:48:43;;;;;;;6.97;4.03;;;12.90;69.30;;;;;;5055340;28;20372;-77
2021/05/31 04:51:09;;;;;;;9.90;4.65;;;12.80;69.40;;;;;;5054070;28;20482;-77
2021/05/31 04:53:34;;;;;;;9.48;4.78;;;12.70;71.00;;;;;;5055218;28;20435;-77
2021/05/31 04:56:03;;;;;;;8.00;4.57;;;12.70;73.50;;;;;;5062240;28;20013;-77
2021/05/31 04:58:29;;;;;;;8.10;4.30;;;12.80;72.60;;;;;;5075114;28;20034;-77
2021/05/31 05:00:55;;;;;;;5.88;4.53;;;12.80;71.90;;;;;;5060195;28;20021;-77
2021/05/31 05:03:21;;;;;;;6.32;4.00;;;13.00;72.90;;;;;;5061006;28;20115;-78
2021/05/31 05:05:48;;;;;;;9.02;3.85;;;13.00;70.20;;;;;;5074526;28;20037;-78
2021/05/31 05:08:14;;;;;;;6.10;3.50;;;12.80;68.50;;;;;;5070577;28;20119;-78
2021/05/31 05:10:41;;;;;;;6.88;3.92;;;12.90;69.10;;;;;;5064802;28;20028;-78
2021/05/31 05:13:07;;;;;;;5.60;4.50;;;12.80;68.20;;;;;;5054847;28;20143;-78
2021/05/31 05:15:34;;;;;;;7.38;4.20;;;12.90;70.10;;;;;;5057191;28;20021;-78
2021/05/31 05:18:00;;;;;;;8.93;4.75;;;13.00;69.40;;;;;;5054865;28;20123;-78
2021/05/31 05:20:27;;;;;;;6.57;4.53;;;13.10;69.70;;;;;;5054757;28;20558;-78
2021/05/31 05:22:54;;;;;;;5.05;4.00;;;13.10;69.10;;;;;;5054661;28;20386;-77
2021/05/31 05:25:20;;;;;;;11.88;4.55;;;12.90;69.70;;;;;;5054673;28;20386;-77
2021/05/31 05:27:49;;;;;;;4.88;3.75;;;13.00;70.30;;;;;;5053126;28;20110;-78
2021/05/31 05:30:23;;;;;;;3.75;3.33;;;13.20;70.10;;;;;;5061031;28;20462;-78
2021/05/31 05:32:50;;;;;;;6.57;4.20;;;13.20;69.60;;;;;;5069682;28;20090;-78
2021/05/31 05:38:03;;;;;;;7.90;3.80;;;13.30;68.30;;;;;;5054647;28;20040;-78
2021/05/31 05:48:20;;;;;;;4.72;3.35;;;13.80;66.20;;;;;;5074303;28;20041;-78
2021/05/31 05:50:46;;;;;;;8.43;4.47;;;13.80;64.00;;;;;;5072207;28;20070;-78
2021/05/31 05:53:12;;;;;;;5.82;3.65;;;14.00;61.70;;;;;;5070662;28;20111;-78
2021/05/31 05:55:37;;;;;;;5.88;3.10;;;14.10;61.40;;;;;;5072310;28;20505;-78
2021/05/31 05:58:03;;;;;;;4.38;2.72;;;14.10;59.50;;;;;;5058188;28;20029;-77
2021/05/31 06:00:31;;;;;;;7.47;3.20;;;14.20;59.00;;;;;;5062325;28;20493;-77
2021/05/31 06:02:57;;;;;;;5.55;2.83;;;14.30;59.50;;;;;;5052573;28;20048;-77
2021/05/31 06:05:24;;;;;;;3.30;2.35;;;14.30;60.20;;;;;;5052783;28;20071;-78
2021/05/31 06:07:50;;;;;;;4.80;3.15;;;14.00;58.30;;;;;;5052371;28;20116;-78
2021/05/31 06:10:16;;;;;;;6.50;3.42;;;14.10;58.70;;;;;;5053847;28;20116;-78
2021/05/31 06:12:42;;;;;;;7.88;3.85;;;14.30;58.90;;;;;;5059085;28;20017;-78
2021/05/31 06:15:10;;;;;;;7.07;2.97;;;14.30;57.50;;;;;;5060305;28;20017;-79
2021/05/31 06:17:37;;;;;;;4.65;2.58;;;14.30;56.20;;;;;;5061955;28;20552;-78
2021/05/31 06:20:05;;;;;;;2.30;1.98;;;14.40;56.00;;;;;;5061702;28;20036;-78
2021/05/31 06:22:33;;;;;;;3.38;2.00;;;14.60;53.70;;;;;;5058917;28;20076;-78
2021/05/31 06:24:59;;;;;;;2.80;2.15;;;14.50;54.20;;;;;;5050286;28;20147;-78
2021/05/31 06:27:25;;;;;;;3.67;2.33;;;14.40;54.30;;;;;;5064490;28;20052;-77
2021/05/31 06:29:51;;;;;;;2.40;2.20;;;14.60;54.70;;;;;;5060166;28;20106;-78
2021/05/31 06:32:17;;;;;;;2.90;2.28;;;14.60;53.70;;;;;;5063019;28;20048;-78
2021/05/31 06:34:43;;;;;;;3.75;2.15;;;14.50;54.00;;;;;;5053938;28;20078;-78
2021/05/31 06:37:08;;;;;;;3.58;2.20;;;14.60;54.40;;;;;;5054748;28;20685;-78
2021/05/31 06:39:34;;;;;;;3.35;2.10;;;14.50;53.40;;;;;;5058134;28;20024;-78
2021/05/31 06:42:00;;;;;;;1.77;1.67;;;14.40;51.90;;;;;;5065596;28;20037;-78
2021/05/31 06:44:25;;;;;;;5.03;2.10;;;14.60;52.50;;;;;;5069696;28;20038;-78
2021/05/31 06:46:51;;;;;;;5.60;1.98;;;14.80;53.00;;;;;;5067935;28;20454;-78
2021/05/31 06:49:17;;;;;;;2.42;1.55;;;14.80;51.50;;;;;;5064208;28;20028;-79
2021/05/31 06:51:42;;;;;;;3.00;2.10;;;14.80;50.90;;;;;;5065578;28;20068;-78
2021/05/31 06:54:09;;;;;;;2.42;1.83;;;14.80;51.30;;;;;;5062361;28;20486;-78
2021/05/31 06:56:35;;;;;;;2.30;1.90;;;14.80;51.20;;;;;;5062590;28;20497;-79
2021/05/31 06:59:01;;;;;;;2.60;2.40;;;14.80;51.70;;;;;;5061704;28;20008;-80
2021/05/31 07:01:26;;;;;;;2.08;1.95;;;14.80;51.30;;;;;;5063967;28;20074;-80
2021/05/31 07:03:52;;;;;;;3.67;2.55;;;14.90;52.90;;;;;;5064067;28;20013;-80
2021/05/31 07:06:18;;;;;;;2.63;2.42;;;14.90;53.90;;;;;;5064670;28;20393;-80
2021/05/31 07:08:43;;;;;;;3.45;2.35;;;14.80;53.20;;;;;;5060091;28;20036;-80
2021/05/31 07:11:13;;;;;;;2.40;2.30;;;15.10;52.70;;;;;;5062863;28;20468;-79
2021/05/31 07:13:39;;;;;;;3.38;1.95;;;15.40;53.00;;;;;;5055412;28;20443;-80
2021/05/31 07:16:07;;;;;;;3.63;2.47;;;15.70;52.90;;;;;;5060512;28;20115;-80
2021/05/31 07:18:33;;;;;;;3.25;2.40;;;15.40;52.50;;;;;;5062289;28;20414;-81
2021/05/31 07:21:02;;;;;;;2.38;2.17;;;15.30;53.60;;;;;;5056912;28;20013;-80
2021/05/31 07:23:28;;;;;;;4.00;2.88;;;15.40;52.20;;;;;;5058629;28;20032;-80
2021/05/31 07:25:53;;;;;;;4.15;2.50;;;14.80;51.40;;;;;;5055919;28;20021;-80
2021/05/31 07:28:19;;;;;;;2.28;1.70;;;14.80;51.70;;;;;;5061218;28;20437;-80
2021/05/31 07:30:45;;;;;;;1.80;1.70;;;14.90;51.50;;;;;;5061453;28;20437;-80
2021/05/31 07:33:12;;;;;;;1.95;1.83;;;14.90;50.80;;;;;;5061796;28;20139;-79
2021/05/31 07:35:38;;;;;;;3.33;1.98;;;15.30;50.80;;;;;;5059619;28;20047;-79
2021/05/31 07:38:05;;;;;;;1.98;1.88;;;15.40;51.50;;;;;;5059078;28;20374;-80
2021/05/31 07:40:31;;;;;;;3.63;1.75;;;15.60;51.20;;;;;;5062792;28;20025;-79
2021/05/31 07:42:57;;;;;;;1.85;1.75;;;15.60;50.10;;;;;;5060319;28;20036;-79
2021/05/31 07:45:23;;;;;;;4.07;2.42;;;15.40;49.60;;;;;;5062393;28;20028;-79
2021/05/31 07:47:48;;;;;;;3.45;2.00;;;15.40;50.50;;;;;;5058123;28;20052;-79
2021/05/31 07:50:15;;;;;;;2.90;2.13;;;15.60;50.10;;;;;;5063387;28;20039;-80
2021/05/31 07:52:42;;;;;;;3.17;1.80;;;15.70;50.60;;;;;;5057380;28;20402;-79
2021/05/31 07:55:11;;;;;;;4.07;1.58;;;15.50;50.10;;;;;;5059141;28;20025;-79
2021/05/31 07:57:39;;;;;;;3.05;2.40;;;15.70;50.60;;;;;;5059569;28;20118;-79
2021/05/31 08:00:07;;;;;;;2.03;1.88;;;15.60;50.10;;;;;;5055878;28;20058;-79
2021/05/31 08:02:33;;;;;;;3.17;1.90;;;15.80;50.30;;;;;;5065371;28;20052;-79
2021/05/31 08:04:59;;;;;;;3.63;1.98;;;15.90;50.10;;;;;;5054148;28;20029;-79
2021/05/31 08:07:25;;;;;;;4.25;1.77;;;15.60;49.40;;;;;;5053030;28;20506;-79
2021/05/31 08:09:50;;;;;;;2.13;1.90;;;15.90;50.40;;;;;;5059967;28;20090;-79
2021/05/31 08:12:16;;;;;;;4.00;1.80;;;15.90;49.80;;;;;;5045659;28;20095;-80
2021/05/31 08:14:42;;;;;;;2.17;2.00;;;15.90;49.00;;;;;;5066458;28;20031;-79
2021/05/31 08:17:08;;;;;;;2.00;1.67;;;15.90;49.60;;;;;;5070981;28;20037;-78
2021/05/31 08:19:34;;;;;;;5.53;2.47;;;16.10;49.30;;;;;;5068692;28;20018;-79
2021/05/31 08:22:02;;;;;;;3.60;1.85;;;16.10;48.20;;;;;;5070440;28;20450;-79
2021/05/31 08:24:28;;;;;;;4.63;1.90;;;16.10;48.50;;;;;;5072433;28;20465;-79
2021/05/31 08:26:54;;;;;;;7.15;1.88;;;15.90;49.30;;;;;;5070951;28;20356;-80
2021/05/31 08:29:21;;;;;;;4.10;1.80;;;15.60;50.10;;;;;;5070436;28;20086;-79
2021/05/31 08:31:47;;;;;;;2.53;2.00;;;15.90;50.10;;;;;;5068436;28;20080;-79
2021/05/31 08:34:12;;;;;;;6.00;1.88;;;16.30;49.70;;;;;;5070461;28;20016;-79
2021/05/31 08:36:38;;;;;;;2.75;1.90;;;16.00;49.30;;;;;;5069715;28;20472;-79
2021/05/31 08:39:07;;;;;;;3.35;2.00;;;15.90;49.10;;;;;;5067900;28;20017;-79
2021/05/31 08:41:34;;;;;;;1.85;1.73;;;16.10;49.70;;;;;;5067333;28;20068;-79
2021/05/31 08:44:00;;;;;;;5.97;2.08;;;16.50;49.80;;;;;;5069750;28;20355;-79
2021/05/31 08:46:26;;;;;;;4.03;1.65;;;16.40;48.90;;;;;;5071033;28;20036;-80
2021/05/31 08:48:52;;;;;;;2.25;1.85;;;16.10;47.80;;;;;;5069000;28;20480;-80
2021/05/31 08:51:21;;;;;;;2.08;1.85;;;16.00;47.40;;;;;;5066531;28;20056;-80
2021/05/31 08:53:47;;;;;;;2.42;1.80;;;16.10;48.80;;;;;;5067270;28;20048;-80
2021/05/31 08:56:13;;;;;;;4.82;2.17;;;16.20;48.80;;;;;;5065203;28;20055;-81
2021/05/31 08:58:39;;;;;;;4.75;1.90;;;16.20;48.40;;;;;;5069308;28;20035;-81
2021/05/31 09:01:05;;;;;;;4.10;2.38;;;15.90;49.00;;;;;;5068054;28;20240;-81
2021/05/31 09:03:31;;;;;;;3.53;1.95;;;15.60;48.10;;;;;;5068118;28;20017;-80
2021/05/31 09:06:03;;;;;;;2.25;2.05;;;15.60;47.20;;;;;;5068556;28;20058;-82
2021/05/31 09:08:29;;;;;;;4.47;2.03;;;15.80;47.50;;;;;;5059728;28;20399;-81
2021/05/31 09:11:03;;;;;;;2.20;1.58;;;16.30;47.50;;;;;;5067389;28;20036;-81
2021/05/31 09:13:40;;;;;;;2.63;2.10;;;16.30;47.10;;;;;;5061084;28;20580;-80
2021/05/31 09:16:17;;;;;;;2.20;2.00;;;16.50;46.10;;;;;;5070065;28;20028;-80
2021/05/31 09:18:49;;;;;;;4.35;2.28;;;16.70;47.00;;;;;;5065981;28;20028;-80
2021/05/31 09:21:30;;;;;;;2.95;1.88;;;16.20;47.60;;;;;;5067090;28;20452;-81
2021/05/31 09:24:01;;;;;;;3.78;2.13;;;15.80;48.30;;;;;;5063801;28;21312;-81
2021/05/31 09:26:28;;;;;;;4.03;2.10;;;15.30;49.40;;;;;;5070425;28;20089;-81
2021/05/31 09:28:58;;;;;;;1.92;1.58;;;15.20;50.10;;;;;;5066120;28;20040;-81
2021/05/31 09:31:25;;;;;;;3.20;1.67;;;15.10;50.10;;;;;;5068848;28;20037;-81
2021/05/31 09:34:07;;;;;;;1.60;1.50;;;15.40;50.00;;;;;;5067207;28;20068;-81
2021/05/31 09:36:46;;;;;;;2.07;1.40;;;16.00;49.40;;;;;;5062093;28;20029;-82
2021/05/31 09:39:12;;;;;;;3.78;1.73;;;15.90;47.30;;;;;;5067498;28;20432;-82
2021/05/31 09:41:37;;;;;;;4.32;2.03;;;16.00;47.10;;;;;;5064905;28;20041;-79
2021/05/31 09:44:05;;;;;;;3.60;1.60;;;16.10;47.60;;;;;;5066942;28;20077;-81
2021/05/31 09:46:43;;;;;;;4.07;1.58;;;16.00;47.80;;;;;;5066013;28;20094;-80
2021/05/31 09:49:19;;;;;;;2.95;1.60;;;15.80;48.40;;;;;;5068598;28;20074;-80
2021/05/31 09:51:49;;;;;;;1.67;1.48;;;15.60;47.90;;;;;;5068435;28;20029;-80
2021/05/31 09:54:34;;;;;;;4.55;1.90;;;15.40;48.10;;;;;;5059095;28;20017;-80
2021/05/31 09:57:16;;;;;;;5.05;1.60;;;15.40;48.80;;;;;;5049729;28;20087;-79
2021/05/31 10:00:04;;;;;;;2.28;1.52;;;15.70;48.20;;;;;;5052174;28;20013;-80
2021/05/31 10:10:32;;;;;;;1.75;1.65;;;15.80;45.90;;;;;;5052746;28;20029;-79
2021/05/31 10:12:59;;;;;;;2.92;1.75;;;16.20;45.50;;;;;;5059792;28;20037;-80
2021/05/31 10:15:28;;;;;;;1.80;1.70;;;15.90;45.50;;;;;;5071187;28;20097;-85
2021/05/31 10:17:56;;;;;;;2.92;2.17;;;16.00;47.20;;;;;;5071321;28;20044;-77
2021/05/31 10:20:23;;;;;;;2.33;1.90;;;16.40;48.40;;;;;;5062529;28;20029;-80
2021/05/31 10:22:49;;;;;;;2.60;1.80;;;16.20;47.90;;;;;;5059188;28;20447;-80
2021/05/31 10:25:17;;;;;;;4.18;2.05;;;16.30;46.70;;;;;;5058636;28;20070;-80
2021/05/31 10:27:45;;;;;;;2.50;1.92;;;16.20;46.60;;;;;;5058328;28;20396;-80
2021/05/31 10:30:15;;;;;;;2.88;1.60;;;16.40;46.10;;;;;;5056826;28;20504;-79
2021/05/31 10:32:40;;;;;;;3.55;1.65;;;16.20;45.90;;;;;;5056265;28;20496;-80
2021/05/31 10:35:21;;;;;;;2.20;1.60;;;16.30;46.10;;;;;;5058025;28;20032;-81
2021/05/31 10:37:57;;;;;;;5.03;1.80;;;16.30;45.80;;;;;;5060674;28;20032;-80
2021/05/31 10:40:37;;;;;;;3.47;1.63;;;15.70;46.50;;;;;;5058417;28;20074;-81
2021/05/31 10:43:07;;;;;;;5.22;1.63;;;15.60;47.70;;;;;;5064023;28;20036;-80
2021/05/31 10:45:33;;;;;;;3.88;2.20;;;15.50;48.70;;;;;;5058671;28;20070;-81
2021/05/31 10:48:03;;;;;;;2.30;1.60;;;15.40;47.70;;;;;;5068403;28;20056;-81
2021/05/31 10:50:33;;;;;;;6.13;1.83;;;15.30;46.60;;;;;;5063016;28;20557;-81
2021/05/31 10:52:59;;;;;;;3.67;1.90;;;15.10;46.60;;;;;;5065874;28;20036;-81
2021/05/31 10:55:27;;;;;;;5.45;1.83;;;15.00;46.90;;;;;;5054900;28;20417;-81
2021/05/31 10:57:54;;;;;;;3.55;1.40;;;15.00;47.00;;;;;;5080163;28;20881;-81
2021/05/31 11:00:25;;;;;;;2.25;1.80;;;15.30;47.60;;;;;;5067865;28;20056;-81
2021/05/31 11:03:03;;;;;;;3.65;2.08;;;15.60;48.40;;;;;;5054341;28;20033;-81
2021/05/31 11:05:34;;;;;;;1.50;1.40;;;15.30;47.50;;;;;;5057629;28;20095;-81
2021/05/31 11:08:00;;;;;;;4.80;1.67;;;15.10;47.50;;;;;;5055367;28;20132;-81
2021/05/31 11:10:30;;;;;;;3.60;1.83;;;15.10;46.80;;;;;;5055029;28;20108;-81
2021/05/31 11:13:07;;;;;;;5.35;1.65;;;15.60;46.20;;;;;;5055733;28;20467;-81
2021/05/31 11:15:34;;;;;;;4.70;1.35;;;16.10;46.90;;;;;;5056884;28;20017;-81
2021/05/31 11:18:00;;;;;;;2.88;1.23;;;16.00;43.80;;;;;;5056294;28;20097;-81
2021/05/31 11:20:28;;;;;;;2.88;1.55;;;16.30;43.60;;;;;;5049528;28;20025;-81
2021/05/31 11:23:00;;;;;;;3.03;1.20;;;16.40;42.40;;;;;;5053921;28;20025;-81
2021/05/31 11:25:30;;;;;;;1.77;1.10;;;16.50;41.90;;;;;;5058551;28;20029;-81
2021/05/31 11:27:59;;;;;;;1.35;1.30;;;16.60;41.80;;;;;;5059867;28;20043;-81
2021/05/31 11:30:34;;;;;;;5.93;1.60;;;16.70;41.60;;;;;;5059125;28;20044;-82
2021/05/31 11:33:03;;;;;;;4.68;1.27;;;16.80;41.70;;;;;;5063040;28;20147;-82
2021/05/31 11:35:30;;;;;;;4.32;1.60;;;16.90;41.60;;;;;;5067190;28;20266;-81
2021/05/31 11:37:57;;;;;;;2.80;1.10;;;16.70;40.90;;;;;;5066527;28;20074;-80
2021/05/31 11:40:40;;;;;;;1.50;1.40;;;17.00;41.10;;;;;;5066367;28;20052;-80
2021/05/31 11:43:07;;;;;;;1.50;1.40;;;16.90;40.60;;;;;;5066372;28;20033;-81
2021/05/31 11:45:37;;;;;;;4.30;1.23;;;16.70;40.40;;;;;;5070373;28;20025;-80
2021/05/31 11:48:08;;;;;;;2.30;1.10;;;16.40;40.30;;;;;;5064964;28;20056;-81
2021/05/31 11:50:35;;;;;;;1.17;1.08;;;16.10;40.90;;;;;;5063189;28;20012;-80
2021/05/31 11:53:04;;;;;;;4.35;1.70;;;15.90;41.20;;;;;;5064896;28;20029;-80
2021/05/31 11:55:31;;;;;;;1.20;1.10;;;15.80;40.80;;;;;;5065315;28;20548;-80
2021/05/31 11:57:57;;;;;;;1.58;1.02;;;16.00;40.30;;;;;;5070274;28;20037;-81
2021/05/31 12:00:26;;;;;;;5.68;1.25;;;16.40;39.10;;;;;;5071423;28;20128;-81
2021/05/31 12:02:52;;;;;;;1.55;1.00;;;16.90;38.50;;;;;;5068787;28;20431;-82
2021/05/31 12:05:35;;;;;;;2.47;1.40;;;17.10;39.10;;;;;;5065116;28;20490;-81
2021/05/31 12:08:10;;;;;;;7.13;1.58;;;16.90;39.30;;;;;;5062315;28;20040;-80
2021/05/31 12:10:37;;;;;;;1.90;1.40;;;17.20;39.80;;;;;;5060257;28;20103;-80
2021/05/31 12:13:03;;;;;;;2.28;1.17;;;17.20;39.80;;;;;;5056361;28;20071;-81
2021/05/31 12:15:29;;;;;;;3.10;1.30;;;17.10;38.80;;;;;;5063735;28;20063;-80
2021/05/31 12:17:55;;;;;;;2.67;1.35;;;17.40;39.80;;;;;;5062930;28;20029;-80
2021/05/31 12:20:23;;;;;;;2.25;1.30;;;17.80;40.80;;;;;;5062597;28;20020;-80
2021/05/31 12:22:48;;;;;;;2.53;1.25;;;17.70;39.80;;;;;;5061733;28;20045;-79
2021/05/31 12:25:14;;;;;;;1.85;1.30;;;17.70;40.10;;;;;;5063425;28;20025;-80
2021/05/31 12:27:40;;;;;;;5.53;1.25;;;17.40;40.50;;;;;;5063143;28;20041;-80
2021/05/31 12:30:09;;;;;;;4.93;1.42;;;16.80;40.80;;;;;;5061722;28;20495;-80
2021/05/31 12:32:36;;;;;;;1.15;1.05;;;16.70;41.60;;;;;;5070310;28;20434;-79
2021/05/31 12:35:04;;;;;;;2.95;1.20;;;16.80;42.70;;;;;;5074328;28;20013;-79
2021/05/31 12:37:32;;;;;;;7.43;1.65;;;16.60;42.90;;;;;;5072248;28;20043;-80
2021/05/31 12:40:02;;;;;;;1.35;1.00;;;16.00;41.90;;;;;;5058407;28;20025;-79
2021/05/31 12:42:30;;;;;;;1.95;1.23;;;15.70;42.30;;;;;;5067664;28;20545;-80
2021/05/31 12:45:03;;;;;;;2.10;1.40;;;16.20;43.30;;;;;;5067418;28;20066;-80
2021/05/31 12:47:38;;;;;;;4.40;1.52;;;16.50;42.50;;;;;;5066151;28;20109;-80
2021/05/31 12:50:10;;;;;;;1.08;1.08;;;16.70;41.40;;;;;;5065704;28;20021;-80
2021/05/31 12:52:40;;;;;;;1.77;1.23;;;17.00;40.30;;;;;;5065580;28;20040;-80
2021/05/31 12:55:22;;;;;;;3.47;1.27;;;17.10;40.80;;;;;;5067678;28;20024;-80
2021/05/31 12:57:51;;;;;;;1.73;1.63;;;17.10;40.70;;;;;;5065201;28;20041;-80
2021/05/31 13:00:24;;;;;;;3.50;1.50;;;17.30;40.50;;;;;;5070808;28;20112;-81
2021/05/31 13:02:58;;;;;;;6.30;1.85;;;17.10;41.80;;;;;;5071210;28;20045;-80
2021/05/31 13:05:28;;;;;;;3.03;1.90;;;17.00;44.00;;;;;;5072996;28;20024;-81
2021/05/31 13:07:56;;;;;;;2.33;2.03;;;16.90;44.80;;;;;;5064715;28;20446;-80
2021/05/31 13:10:24;;;;;;;4.05;1.73;;;16.30;44.70;;;;;;5059270;28;20123;-80
2021/05/31 13:13:01;;;;;;;4.72;2.15;;;16.20;45.40;;;;;;5055390;28;20048;-80
2021/05/31 13:15:46;;;;;;;4.10;1.80;;;16.20;45.80;;;;;;5061946;28;20053;-80
2021/05/31 13:18:21;;;;;;;8.27;1.70;;;15.80;45.70;;;;;;5062870;28;20390;-80